createdAt,value
2023-03-08T00:00:52.342Z,0
2023-03-08T00:02:07.562Z,0
2023-03-08T00:03:22.772Z,0
2023-03-08T00:04:37.994Z,0
2023-03-08T00:05:53.204Z,0
2023-03-08T00:07:09.398Z,0
2023-03-08T00:08:25.592Z,0
2023-03-08T00:09:41.786Z,0
2023-03-08T00:10:49.000Z,0
2023-03-08T00:12:14.428Z,0
2023-03-08T00:13:30.616Z,0
2023-03-08T00:14:46.819Z,0
2023-03-08T00:16:02.755Z,0
2023-03-08T00:17:18.949Z,0
2023-03-08T00:18:35.143Z,0
2023-03-08T00:19:51.337Z,0
2023-03-08T00:21:07.531Z,0
2023-03-08T00:22:14.000Z,0
2023-03-08T00:23:30.000Z,0
2023-03-08T00:24:55.130Z,0
2023-03-08T00:26:11.324Z,0
2023-03-08T00:27:18.000Z,0
2023-03-08T00:28:43.712Z,0
2023-03-08T00:29:59.905Z,0
2023-03-08T00:31:16.099Z,0
2023-03-08T00:32:32.293Z,0
2023-03-08T00:33:48.487Z,0
2023-03-08T00:35:04.926Z,0
2023-03-08T00:36:11.000Z,0
2023-03-08T00:37:35.113Z,0
2023-03-08T00:38:51.306Z,0
2023-03-08T00:39:57.000Z,0
2023-03-08T00:41:21.737Z,0
2023-03-08T00:42:37.931Z,0
2023-03-08T00:43:54.125Z,0
2023-03-08T00:45:10.319Z,0
2023-03-08T00:46:26.513Z,0
2023-03-08T00:47:42.707Z,0
2023-03-08T00:48:59.146Z,0
2023-03-08T00:50:15.096Z,0
2023-03-08T00:51:31.290Z,0
2023-03-08T00:52:47.484Z,0
2023-03-08T00:54:03.678Z,0
2023-03-08T00:55:19.871Z,0
2023-03-08T00:56:36.065Z,0
2023-03-08T00:57:51.276Z,0
2023-03-08T00:59:04.000Z,0
2023-03-08T01:00:23.663Z,0
2023-03-08T01:01:40.112Z,0
2023-03-08T01:02:56.051Z,0
2023-03-08T01:04:12.245Z,0
2023-03-08T01:05:28.439Z,0
2023-03-08T01:06:43.659Z,0
2023-03-08T01:07:59.115Z,0
2023-03-08T01:09:15.063Z,0
2023-03-08T01:10:30.284Z,0
2023-03-08T01:11:45.494Z,0
2023-03-08T01:13:01.688Z,0
2023-03-08T01:14:09.000Z,0
2023-03-08T01:15:34.076Z,0
2023-03-08T01:16:50.270Z,0
2023-03-08T01:18:06.464Z,0
2023-03-08T01:19:22.658Z,0
2023-03-08T01:20:39.110Z,0
2023-03-08T01:21:55.046Z,0
2023-03-08T01:23:11.239Z,0
2023-03-08T01:24:27.434Z,0
2023-03-08T01:25:43.627Z,0
2023-03-08T01:26:59.821Z,0
2023-03-08T01:28:15.032Z,0
2023-03-08T01:29:31.225Z,0
2023-03-08T01:30:47.419Z,0
2023-03-08T01:32:03.613Z,0
2023-03-08T01:33:19.807Z,0
2023-03-08T01:34:36.001Z,0
2023-03-08T01:35:52.195Z,0
2023-03-08T01:37:08.389Z,0
2023-03-08T01:38:24.584Z,0
2023-03-08T01:39:32.000Z,0
2023-03-08T01:40:56.972Z,0
2023-03-08T01:42:13.166Z,0
2023-03-08T01:43:29.359Z,0
2023-03-08T01:44:44.569Z,0
2023-03-08T01:46:00.763Z,0
2023-03-08T01:47:16.958Z,0
2023-03-08T01:48:24.000Z,0
2023-03-08T01:49:49.345Z,0
2023-03-08T01:51:05.539Z,0
2023-03-08T01:52:13.000Z,0
2023-03-08T01:53:37.927Z,0
2023-03-08T01:54:45.000Z,0
2023-03-08T01:57:25.535Z,0
2023-03-08T01:58:40.746Z,0
2023-03-08T01:59:55.966Z,0
2023-03-08T02:01:11.177Z,0
2023-03-08T02:02:27.370Z,0
2023-03-08T02:03:43.564Z,0
2023-03-08T02:04:51.000Z,0
2023-03-08T02:06:15.954Z,0
2023-03-08T02:07:32.148Z,0
2023-03-08T02:08:48.344Z,0
2023-03-08T02:10:04.538Z,0
2023-03-08T02:11:20.733Z,0
2023-03-08T02:12:36.928Z,0
2023-03-08T02:13:53.123Z,0
2023-03-08T02:15:09.319Z,0
2023-03-08T02:16:25.514Z,0
2023-03-08T02:17:32.000Z,0
2023-03-08T02:18:55.943Z,0
2023-03-08T02:20:12.138Z,0
2023-03-08T02:21:28.584Z,0
2023-03-08T02:22:44.528Z,0
2023-03-08T02:24:00.725Z,0
2023-03-08T02:25:16.919Z,0
2023-03-08T02:26:32.141Z,0
2023-03-08T02:27:47.353Z,0
2023-03-08T02:29:02.576Z,0
2023-03-08T02:30:09.000Z,0
2023-03-08T02:31:33.983Z,0
2023-03-08T02:32:50.179Z,0
2023-03-08T02:33:57.000Z,0
2023-03-08T02:35:22.570Z,0
2023-03-08T02:36:30.000Z,0
2023-03-08T02:37:54.962Z,0
2023-03-08T02:39:11.158Z,0
2023-03-08T02:40:24.000Z,0
2023-03-08T02:41:34.000Z,0
2023-03-08T02:42:51.000Z,0
2023-03-08T02:44:15.942Z,0
2023-03-08T02:45:32.137Z,0
2023-03-08T02:46:47.350Z,0
2023-03-08T02:48:03.544Z,0
2023-03-08T02:49:19.741Z,0
2023-03-08T02:50:35.936Z,0
2023-03-08T02:51:52.132Z,0
2023-03-08T02:53:08.328Z,0
2023-03-08T02:54:24.524Z,0
2023-03-08T02:55:31.000Z,0
2023-03-08T02:56:54.958Z,0
2023-03-08T02:58:10.180Z,0
2023-03-08T02:59:25.635Z,0
2023-03-08T03:00:41.587Z,0
2023-03-08T03:01:57.783Z,0
2023-03-08T03:03:13.979Z,0
2023-03-08T03:04:30.175Z,0
2023-03-08T03:05:46.371Z,0
2023-03-08T03:07:02.807Z,0
2023-03-08T03:08:10.000Z,0
2023-03-08T03:09:34.959Z,0
2023-03-08T03:10:42.000Z,0
2023-03-08T03:12:07.600Z,0
2023-03-08T03:13:23.546Z,0
2023-03-08T03:14:39.988Z,0
2023-03-08T03:15:54.954Z,0
2023-03-08T03:17:11.397Z,0
2023-03-08T03:18:27.345Z,0
2023-03-08T03:19:43.541Z,0
2023-03-08T03:20:51.000Z,0
2023-03-08T03:22:15.933Z,0
2023-03-08T03:23:32.129Z,0
2023-03-08T03:24:47.351Z,0
2023-03-08T03:26:02.562Z,0
2023-03-08T03:27:17.785Z,0
2023-03-08T03:28:32.997Z,0
2023-03-08T03:29:49.193Z,0
2023-03-08T03:31:05.389Z,0
2023-03-08T03:32:21.585Z,0
2023-03-08T03:33:38.023Z,0
2023-03-08T03:34:53.977Z,0
2023-03-08T03:36:10.172Z,0
2023-03-08T03:37:26.624Z,0
2023-03-08T03:38:42.564Z,0
2023-03-08T03:39:58.760Z,0
2023-03-08T03:41:15.202Z,0
2023-03-08T03:42:31.152Z,0
2023-03-08T03:43:47.598Z,0
2023-03-08T03:45:02.560Z,0
2023-03-08T03:46:10.000Z,0
2023-03-08T03:47:34.951Z,0
2023-03-08T03:48:51.147Z,0
2023-03-08T03:50:07.343Z,0
2023-03-08T03:51:23.538Z,0
2023-03-08T03:52:39.735Z,0
2023-03-08T03:53:54.956Z,0
2023-03-08T03:55:10.169Z,0
2023-03-08T03:56:26.364Z,0
2023-03-08T03:57:32.000Z,0
2023-03-08T03:58:56.797Z,0
2023-03-08T04:00:12.994Z,0
2023-03-08T04:01:29.190Z,0
2023-03-08T04:02:45.386Z,0
2023-03-08T04:03:52.000Z,0
2023-03-08T04:05:17.778Z,0
2023-03-08T04:06:33.973Z,0
2023-03-08T04:07:50.419Z,0
2023-03-08T04:09:06.365Z,0
2023-03-08T04:10:22.561Z,0
2023-03-08T04:11:39.009Z,0
2023-03-08T04:12:54.953Z,0
2023-03-08T04:14:11.149Z,0
2023-03-08T04:15:26.609Z,0
2023-03-08T04:16:33.000Z,0
2023-03-08T04:17:50.000Z,0
2023-03-08T04:19:06.000Z,0
2023-03-08T04:20:31.144Z,0
2023-03-08T04:21:47.340Z,0
2023-03-08T04:22:54.000Z,0
2023-03-08T04:24:19.732Z,0
2023-03-08T04:25:34.954Z,0
2023-03-08T04:26:50.166Z,0
2023-03-08T04:28:05.388Z,0
2023-03-08T04:29:20.600Z,0
2023-03-08T04:30:36.797Z,0
2023-03-08T04:31:52.992Z,0
2023-03-08T04:33:09.189Z,0
2023-03-08T04:34:25.384Z,0
2023-03-08T04:35:41.580Z,0
2023-03-08T04:36:25.000Z,0
2023-03-08T04:36:49.000Z,0
2023-03-08T04:38:13.972Z,0
2023-03-08T04:39:30.168Z,0
2023-03-08T04:40:46.364Z,0
2023-03-08T04:43:18.757Z,0
2023-03-08T04:44:34.952Z,0
2023-03-08T04:45:50.164Z,0
2023-03-08T04:47:06.359Z,0
2023-03-08T04:48:22.556Z,0
2023-03-08T04:49:39.003Z,0
2023-03-08T04:50:54.948Z,0
2023-03-08T04:52:11.143Z,0
2023-03-08T04:53:27.587Z,0
2023-03-08T04:54:42.561Z,0
2023-03-08T04:55:57.773Z,0
2023-03-08T04:57:13.968Z,0
2023-03-08T04:58:29.441Z,0
2023-03-08T04:59:44.402Z,0
2023-03-08T05:01:00.853Z,0
2023-03-08T05:02:08.000Z,0
2023-03-08T05:03:32.991Z,0
2023-03-08T05:04:49.186Z,0
2023-03-08T05:06:05.383Z,0
2023-03-08T05:07:21.578Z,0
2023-03-08T05:08:37.775Z,0
2023-03-08T05:09:53.970Z,0
2023-03-08T05:11:10.166Z,0
2023-03-08T05:12:26.362Z,0
2023-03-08T05:13:42.797Z,0
2023-03-08T05:14:50.000Z,0
2023-03-08T05:16:14.209Z,0
2023-03-08T05:17:30.162Z,0
2023-03-08T05:18:46.358Z,0
2023-03-08T05:20:02.554Z,0
2023-03-08T05:21:18.750Z,0
2023-03-08T05:22:00.000Z,8
2023-03-08T05:22:34.946Z,4
2023-03-08T05:23:51.385Z,8
2023-03-08T05:25:06.364Z,8
2023-03-08T05:26:21.576Z,8
2023-03-08T05:28:53.968Z,8
2023-03-08T05:30:09.190Z,8
2023-03-08T05:31:24.655Z,8
2023-03-08T05:32:40.598Z,8
2023-03-08T05:33:56.794Z,8
2023-03-08T05:35:12.990Z,8
2023-03-08T05:36:29.186Z,8
2023-03-08T05:37:45.382Z,8
2023-03-08T05:39:01.818Z,8
2023-03-08T05:40:17.773Z,8
2023-03-08T05:41:33.970Z,12
2023-03-08T05:42:50.165Z,8
2023-03-08T05:44:06.362Z,12
2023-03-08T05:45:22.557Z,12
2023-03-08T05:46:38.754Z,12
2023-03-08T05:47:54.216Z,16
2023-03-08T05:49:10.162Z,20
2023-03-08T05:50:26.357Z,20
2023-03-08T05:51:42.795Z,20
2023-03-08T05:52:58.994Z,24
2023-03-08T05:54:15.184Z,20
2023-03-08T05:55:31.141Z,24
2023-03-08T05:56:46.606Z,28
2023-03-08T05:58:01.576Z,28
2023-03-08T05:59:16.799Z,32
2023-03-08T06:00:32.010Z,36
2023-03-08T06:01:48.453Z,40
2023-03-08T06:03:04.402Z,44
2023-03-08T06:04:20.599Z,52
2023-03-08T06:05:37.038Z,56
2023-03-08T06:06:44.000Z,64
2023-03-08T06:08:09.186Z,68
2023-03-08T06:09:25.382Z,76
2023-03-08T06:10:41.829Z,80
2023-03-08T06:11:58.024Z,92
2023-03-08T06:13:13.970Z,112
2023-03-08T06:13:57.000Z,180
2023-03-08T06:14:30.166Z,124
2023-03-08T06:15:46.361Z,140
2023-03-08T06:17:01.813Z,152
2023-03-08T06:18:18.007Z,168
2023-03-08T06:20:50.160Z,200
2023-03-08T06:22:06.598Z,220
2023-03-08T06:23:22.552Z,236
2023-03-08T06:24:38.994Z,256
2023-03-08T06:25:53.970Z,264
2023-03-08T06:27:09.182Z,260
2023-03-08T06:28:25.377Z,264
2023-03-08T06:29:41.574Z,280
2023-03-08T06:30:56.796Z,292
2023-03-08T06:32:12.009Z,300
2023-03-08T06:33:27.225Z,316
2023-03-08T06:34:43.680Z,328
2023-03-08T06:35:59.617Z,340
2023-03-08T06:37:16.060Z,356
2023-03-08T06:38:32.009Z,376
2023-03-08T06:39:48.458Z,388
2023-03-08T06:41:04.401Z,400
2023-03-08T06:42:20.597Z,392
2023-03-08T06:43:36.793Z,384
2023-03-08T06:44:53.238Z,388
2023-03-08T06:46:09.426Z,388
2023-03-08T06:47:25.381Z,440
2023-03-08T06:48:41.577Z,500
2023-03-08T06:49:57.041Z,524
2023-03-08T06:51:13.237Z,524
2023-03-08T06:52:29.427Z,560
2023-03-08T06:53:45.624Z,576
2023-03-08T06:55:01.574Z,620
2023-03-08T06:56:18.018Z,680
2023-03-08T06:57:33.243Z,752
2023-03-08T06:58:48.204Z,860
2023-03-08T07:00:04.653Z,1004
2023-03-08T07:01:20.596Z,1248
2023-03-08T07:02:36.793Z,1608
2023-03-08T07:03:53.229Z,1832
2023-03-08T07:05:09.184Z,2120
2023-03-08T07:06:25.629Z,2224
2023-03-08T07:07:41.816Z,2164
2023-03-08T07:08:57.772Z,2144
2023-03-08T07:10:14.214Z,2164
2023-03-08T07:11:30.164Z,2256
2023-03-08T07:12:46.614Z,2416
2023-03-08T07:14:02.556Z,2516
2023-03-08T07:15:17.770Z,2528
2023-03-08T07:16:34.218Z,2488
2023-03-08T07:17:50.405Z,2436
2023-03-08T07:19:06.357Z,2364
2023-03-08T07:20:22.804Z,2368
2023-03-08T07:21:38.750Z,2460
2023-03-08T07:22:54.947Z,2584
2023-03-08T07:24:10.170Z,2660
2023-03-08T07:25:25.382Z,2600
2023-03-08T07:26:40.845Z,2388
2023-03-08T07:27:55.817Z,2420
2023-03-08T07:29:12.256Z,2240
2023-03-08T07:30:28.210Z,2208
2023-03-08T07:31:44.657Z,2152
2023-03-08T07:33:00.846Z,1868
2023-03-08T07:34:08.000Z,1688
2023-03-08T07:35:24.000Z,1668
2023-03-08T07:36:49.437Z,1656
2023-03-08T07:38:05.633Z,1620
2023-03-08T07:39:12.000Z,1592
2023-03-08T07:40:37.778Z,1560
2023-03-08T07:41:54.214Z,1612
2023-03-08T07:43:10.418Z,1656
2023-03-08T07:44:25.627Z,1652
2023-03-08T07:45:41.823Z,1636
2023-03-08T07:46:57.774Z,1616
2023-03-08T07:48:05.000Z,1528
2023-03-08T07:49:30.166Z,1424
2023-03-08T07:50:46.362Z,1428
2023-03-08T07:52:02.557Z,1448
2023-03-08T07:53:09.000Z,1452
2023-03-08T07:54:32.992Z,1496
2023-03-08T07:55:48.215Z,1444
2023-03-08T07:57:03.426Z,1372
2023-03-08T07:58:19.623Z,1172
2023-03-08T07:59:27.000Z,1120
2023-03-08T08:00:52.266Z,1120
2023-03-08T08:02:08.210Z,1360
2023-03-08T08:03:24.407Z,1916
2023-03-08T08:04:40.602Z,2424
2023-03-08T08:05:57.049Z,2892
2023-03-08T08:07:12.994Z,2868
2023-03-08T08:08:29.190Z,3064
2023-03-08T08:09:45.625Z,3196
2023-03-08T08:11:01.826Z,3104
2023-03-08T08:12:18.020Z,3212
2023-03-08T08:13:24.000Z,3512
2023-03-08T08:14:49.186Z,3376
2023-03-08T08:16:05.626Z,3312
2023-03-08T08:17:21.818Z,3416
2023-03-08T08:18:38.014Z,3356
2023-03-08T08:19:54.216Z,3136
2023-03-08T08:21:01.000Z,3192
2023-03-08T08:22:16.000Z,3072
2023-03-08T08:23:40.848Z,3268
2023-03-08T08:24:57.036Z,3256
2023-03-08T08:26:12.994Z,3056
2023-03-08T08:27:29.437Z,3000
2023-03-08T08:28:44.413Z,3096
2023-03-08T08:29:59.625Z,3244
2023-03-08T08:31:07.000Z,3096
2023-03-08T08:32:32.017Z,3172
2023-03-08T08:33:48.213Z,2932
2023-03-08T08:35:04.652Z,2948
2023-03-08T08:36:11.000Z,3112
2023-03-08T08:37:37.048Z,3200
2023-03-08T08:38:44.000Z,3452
2023-03-08T08:40:09.436Z,3480
2023-03-08T08:41:25.638Z,3552
2023-03-08T08:42:41.834Z,3868
2023-03-08T08:43:58.021Z,3892
2023-03-08T08:45:14.221Z,4288
2023-03-08T08:46:29.446Z,4456
2023-03-08T08:47:45.625Z,4588
2023-03-08T08:49:01.840Z,5044
2023-03-08T08:50:09.000Z,4932
2023-03-08T08:51:34.228Z,4900
2023-03-08T08:52:50.424Z,4960
2023-03-08T08:54:06.368Z,5136
2023-03-08T08:55:21.590Z,5020
2023-03-08T08:56:37.041Z,5228
2023-03-08T08:57:44.000Z,5544
2023-03-08T08:59:09.195Z,5568
2023-03-08T09:00:25.638Z,5612
2023-03-08T09:01:41.829Z,5480
2023-03-08T09:02:58.020Z,5664
2023-03-08T09:04:14.226Z,5388
2023-03-08T09:05:30.423Z,5280
2023-03-08T09:06:37.000Z,5360
2023-03-08T09:07:53.000Z,5496
2023-03-08T09:09:19.017Z,5212
2023-03-08T09:10:34.958Z,4808
2023-03-08T09:11:51.411Z,4760
2023-03-08T09:13:06.610Z,4736
2023-03-08T09:14:22.806Z,4720
2023-03-08T09:15:30.000Z,4792
2023-03-08T09:16:46.000Z,4860
2023-03-08T09:18:02.000Z,5056
2023-03-08T09:19:18.000Z,4936
2023-03-08T09:20:43.795Z,5100
2023-03-08T09:21:59.010Z,4980
2023-03-08T09:23:13.977Z,5556
2023-03-08T09:24:29.454Z,6088
2023-03-08T09:25:45.635Z,6264
2023-03-08T09:26:51.000Z,6028
2023-03-08T09:28:08.000Z,6700
2023-03-08T09:29:33.250Z,7276
2023-03-08T09:30:40.000Z,7492
2023-03-08T09:31:56.000Z,7456
2023-03-08T09:33:21.855Z,7648
2023-03-08T09:34:37.787Z,7196
2023-03-08T09:35:53.983Z,7316
2023-03-08T09:37:10.425Z,7268
2023-03-08T09:38:26.375Z,7324
2023-03-08T09:39:42.814Z,7844
2023-03-08T09:40:50.000Z,7836
2023-03-08T09:42:15.223Z,7176
2023-03-08T09:43:30.421Z,6672
2023-03-08T09:44:46.618Z,6368
2023-03-08T09:46:02.568Z,6196
2023-03-08T09:47:19.009Z,6084
2023-03-08T09:48:26.000Z,6404
2023-03-08T09:49:51.156Z,7040
2023-03-08T09:50:57.000Z,7520
2023-03-08T09:52:21.842Z,7060
2023-03-08T09:53:37.053Z,6560
2023-03-08T09:54:52.269Z,6496
2023-03-08T09:56:08.467Z,7260
2023-03-08T09:57:24.662Z,8156
2023-03-08T09:58:40.870Z,8320
2023-03-08T09:59:57.062Z,8696
2023-03-08T10:01:13.004Z,9468
2023-03-08T10:02:29.448Z,9608
2023-03-08T10:03:36.000Z,9496
2023-03-08T10:05:01.592Z,9296
2023-03-08T10:06:09.000Z,9044
2023-03-08T10:07:34.229Z,9828
2023-03-08T10:08:50.181Z,10100
2023-03-08T10:10:06.377Z,8676
2023-03-08T10:11:21.841Z,9060
2023-03-08T10:12:37.786Z,8928
2023-03-08T10:13:45.000Z,8532
2023-03-08T10:15:10.418Z,8480
2023-03-08T10:16:26.372Z,8376
2023-03-08T10:17:33.000Z,7696
2023-03-08T10:18:50.000Z,7284
2023-03-08T10:19:38.000Z,6536
2023-03-08T10:20:14.229Z,6496
2023-03-08T10:21:29.445Z,6008
2023-03-08T10:22:44.665Z,6264
2023-03-08T10:23:59.876Z,6244
2023-03-08T10:26:32.024Z,6580
2023-03-08T10:27:48.220Z,6916
2023-03-08T10:28:55.000Z,7360
2023-03-08T10:30:20.863Z,7640
2023-03-08T10:31:28.000Z,8100
2023-03-08T10:32:44.000Z,8484
2023-03-08T10:34:00.000Z,8960
2023-03-08T10:34:52.000Z,10884
2023-03-08T10:35:25.395Z,9232
2023-03-08T10:36:32.000Z,8920
2023-03-08T10:37:57.787Z,9816
2023-03-08T10:39:14.228Z,10888
2023-03-08T10:41:45.635Z,10600
2023-03-08T10:43:01.835Z,10352
2023-03-08T10:44:18.048Z,9788
2023-03-08T10:45:33.979Z,9600
2023-03-08T10:46:41.000Z,9296
2023-03-08T10:47:56.000Z,8776
2023-03-08T10:49:21.833Z,9148
2023-03-08T10:50:36.811Z,9716
2023-03-08T10:51:52.267Z,10400
2023-03-08T10:52:58.000Z,10368
2023-03-08T10:54:13.000Z,10044
2023-03-08T10:55:38.894Z,10084
2023-03-08T10:56:46.000Z,9928
2023-03-08T10:58:11.044Z,9916
2023-03-08T10:59:24.000Z,10888
2023-03-08T11:00:34.000Z,10616
2023-03-08T11:01:59.882Z,10124
2023-03-08T11:03:07.000Z,9380
2023-03-08T11:04:23.000Z,9672
2023-03-08T11:05:48.221Z,10384
2023-03-08T11:07:04.417Z,11992
2023-03-08T11:08:20.869Z,11892
2023-03-08T11:09:28.000Z,10284
2023-03-08T11:10:52.022Z,8388
2023-03-08T11:11:36.000Z,10336
2023-03-08T11:12:08.469Z,8192
2023-03-08T11:13:24.663Z,9124
2023-03-08T11:14:40.609Z,10376
2023-03-08T11:15:56.805Z,9900
2023-03-08T11:18:20.000Z,10884
2023-03-08T11:19:35.000Z,11876
2023-03-08T11:20:27.000Z,12012
2023-03-08T11:20:59.631Z,12748
2023-03-08T11:22:16.075Z,13764
2023-03-08T11:23:32.022Z,12664
2023-03-08T11:24:48.458Z,11776
2023-03-08T11:27:20.861Z,11972
2023-03-08T11:28:37.049Z,12812
2023-03-08T11:29:53.242Z,12860
2023-03-08T11:31:09.197Z,14584
2023-03-08T11:32:25.641Z,15200
2023-03-08T11:33:41.588Z,15056
2023-03-08T11:34:49.000Z,12240
2023-03-08T11:36:14.236Z,10936
2023-03-08T11:37:29.439Z,12744
2023-03-08T11:38:45.635Z,13892
2023-03-08T11:39:52.000Z,12520
2023-03-08T11:40:44.000Z,12588
2023-03-08T11:41:09.000Z,10556
2023-03-08T11:42:25.000Z,9744
2023-03-08T11:43:50.159Z,12228
2023-03-08T11:45:06.594Z,11568
2023-03-08T11:47:37.032Z,11400
2023-03-08T11:48:52.004Z,10164
2023-03-08T11:50:07.214Z,9244
2023-03-08T11:51:23.648Z,9616
2023-03-08T11:52:30.000Z,10048
2023-03-08T11:53:55.795Z,9276
2023-03-08T11:55:11.989Z,9300
2023-03-08T11:56:28.183Z,9040
2023-03-08T11:57:35.000Z,10856
2023-03-08T11:59:00.814Z,10136
2023-03-08T12:00:16.764Z,10876
2023-03-08T12:01:00.000Z,13800
2023-03-08T12:01:33.206Z,12072
2023-03-08T12:02:49.151Z,12932
2023-03-08T12:04:05.591Z,12064
2023-03-08T12:05:21.539Z,12404
2023-03-08T12:07:53.182Z,14408
2023-03-08T12:09:09.380Z,11856
2023-03-08T12:10:16.000Z,12024
2023-03-08T12:11:41.522Z,11944
2023-03-08T12:12:49.000Z,10688
2023-03-08T12:14:14.168Z,8464
2023-03-08T12:15:20.000Z,8616
2023-03-08T12:16:44.340Z,7664
2023-03-08T12:17:28.000Z,10080
2023-03-08T12:18:00.774Z,7532
2023-03-08T12:19:16.727Z,8412
2023-03-08T12:20:32.921Z,10552
2023-03-08T12:21:49.114Z,12248
2023-03-08T12:24:21.501Z,8736
2023-03-08T12:25:29.000Z,9492
2023-03-08T12:26:54.131Z,10996
2023-03-08T12:28:10.333Z,12576
2023-03-08T12:29:17.000Z,12472
2023-03-08T12:30:42.716Z,12064
2023-03-08T12:31:50.000Z,12372
2023-03-08T12:33:13.872Z,12556
2023-03-08T12:34:30.067Z,11780
2023-03-08T12:35:37.000Z,10860
2023-03-08T12:37:02.454Z,7896
2023-03-08T12:38:10.000Z,5612
2023-03-08T12:39:34.842Z,5856
2023-03-08T12:40:51.282Z,7264
2023-03-08T12:42:06.256Z,8520
2023-03-08T12:43:12.000Z,10232
2023-03-08T12:44:37.905Z,10144
2023-03-08T12:52:06.000Z,10868
2023-03-08T12:53:31.015Z,14096
2023-03-08T12:54:47.454Z,12192
2023-03-08T12:56:03.654Z,10612
2023-03-08T12:57:19.596Z,10556
2023-03-08T12:58:35.789Z,11352
2023-03-08T12:59:51.000Z,9256
2023-03-08T13:00:58.000Z,9588
2023-03-08T13:02:13.000Z,8020
2023-03-08T13:03:37.623Z,7712
2023-03-08T13:04:44.000Z,6340
2023-03-08T13:06:08.053Z,6212
2023-03-08T13:07:24.247Z,6312
2023-03-08T13:08:31.000Z,6692
2023-03-08T13:09:56.887Z,5964
2023-03-08T13:11:04.000Z,6576
2023-03-08T13:12:20.000Z,8876
2023-03-08T13:13:45.215Z,11376
2023-03-08T13:15:01.664Z,10112
2023-03-08T13:16:17.602Z,9880
2023-03-08T13:17:33.795Z,11308
2023-03-08T13:18:49.015Z,11664
2023-03-08T13:20:04.225Z,11776
2023-03-08T13:21:20.419Z,11180
2023-03-08T13:22:36.612Z,10708
2023-03-08T13:23:52.806Z,10388
2023-03-08T13:25:09.249Z,11036
2023-03-08T13:26:16.000Z,10328
2023-03-08T13:27:41.629Z,9668
2023-03-08T13:28:48.000Z,10292
2023-03-08T13:30:05.000Z,9792
2023-03-08T13:31:29.968Z,9848
2023-03-08T13:32:45.441Z,9944
2023-03-08T13:34:00.398Z,9904
2023-03-08T13:35:16.591Z,10452
2023-03-08T13:36:32.785Z,10484
2023-03-08T13:37:48.978Z,10436
2023-03-08T13:39:05.172Z,9760
2023-03-08T13:40:12.000Z,9032
2023-03-08T13:41:37.559Z,7684
2023-03-08T13:42:53.752Z,7216
2023-03-08T13:44:09.946Z,7544
2023-03-08T13:45:26.381Z,6828
2023-03-08T13:46:42.586Z,6040
2023-03-08T13:47:58.772Z,5676
2023-03-08T13:49:14.720Z,5772
2023-03-08T13:50:30.178Z,5492
2023-03-08T13:51:46.373Z,5256
2023-03-08T13:53:02.572Z,5984
2023-03-08T13:54:09.000Z,6120
2023-03-08T13:55:26.000Z,5368
2023-03-08T13:56:42.000Z,5476
2023-03-08T13:57:58.000Z,6628
2023-03-08T13:59:22.312Z,7364
2023-03-08T14:00:37.779Z,7092
2023-03-08T14:01:52.985Z,6208
2023-03-08T14:02:59.000Z,5328
2023-03-08T14:04:15.000Z,5044
2023-03-08T14:05:31.000Z,4264
2023-03-08T14:06:56.781Z,3384
2023-03-08T14:08:12.971Z,2652
2023-03-08T14:09:29.159Z,2596
2023-03-08T14:10:36.000Z,3160
2023-03-08T14:11:52.000Z,3188
2023-03-08T14:13:17.745Z,3428
2023-03-08T14:14:33.696Z,3796
2023-03-08T14:15:41.000Z,4020
2023-03-08T14:16:57.000Z,4348
2023-03-08T14:18:13.000Z,4640
2023-03-08T14:19:28.000Z,4136
2023-03-08T14:20:45.000Z,4072
2023-03-08T14:22:10.121Z,3556
2023-03-08T14:22:52.000Z,3628
2023-03-08T14:23:26.321Z,3808
2023-03-08T14:24:42.505Z,3884
2023-03-08T14:25:49.000Z,3528
2023-03-08T14:27:06.000Z,3284
2023-03-08T14:29:36.000Z,4088
2023-03-08T14:31:00.541Z,4368
2023-03-08T14:32:06.000Z,3912
2023-03-08T14:33:23.000Z,3132
2023-03-08T14:34:48.148Z,2540
2023-03-08T14:35:54.000Z,2460
2023-03-08T14:37:18.572Z,2676
2023-03-08T14:38:34.766Z,3592
2023-03-08T14:39:50.715Z,3176
2023-03-08T14:40:58.000Z,2764
2023-03-08T14:42:14.000Z,2792
2023-03-08T14:43:39.295Z,2948
2023-03-08T14:44:46.000Z,3024
2023-03-08T14:46:11.682Z,2776
2023-03-08T14:47:19.000Z,2752
2023-03-08T14:48:35.000Z,2632
2023-03-08T14:49:51.000Z,2976
2023-03-08T14:51:16.700Z,2968
2023-03-08T14:52:32.651Z,2552
2023-03-08T14:53:39.000Z,2576
2023-03-08T14:55:04.054Z,2056
2023-03-08T14:56:11.000Z,1924
2023-03-08T14:57:27.000Z,1768
2023-03-08T14:58:18.000Z,1460
2023-03-08T14:58:44.000Z,1520
2023-03-08T14:59:34.000Z,1436
2023-03-08T15:00:09.069Z,1608
2023-03-08T15:01:25.270Z,2092
2023-03-08T15:02:31.000Z,1656
2023-03-08T15:06:27.120Z,1272
2023-03-08T15:07:09.000Z,1800
2023-03-08T15:07:42.087Z,1496
2023-03-08T15:08:58.280Z,1652
2023-03-08T15:10:14.722Z,1848
2023-03-08T15:11:30.913Z,1848
2023-03-08T15:14:03.055Z,2084
2023-03-08T15:15:10.000Z,2148
2023-03-08T15:16:35.443Z,2388
2023-03-08T15:17:43.000Z,2196
2023-03-08T15:19:08.082Z,2048
2023-03-08T15:20:24.271Z,1680
2023-03-08T15:21:40.465Z,1620
2023-03-08T15:22:47.000Z,1784
2023-03-08T15:24:11.885Z,1624
2023-03-08T15:25:28.067Z,1508
2023-03-08T15:26:44.008Z,1588
2023-03-08T15:28:00.454Z,1692
2023-03-08T15:29:16.396Z,1720
2023-03-08T15:30:32.590Z,1744
2023-03-08T15:31:40.000Z,1644
2023-03-08T15:33:04.003Z,1748
2023-03-08T15:34:19.213Z,2080
2023-03-08T15:35:35.406Z,2316
2023-03-08T15:36:51.600Z,2384
2023-03-08T15:38:07.794Z,2336
2023-03-08T15:39:23.987Z,2392
2023-03-08T15:40:40.423Z,2424
2023-03-08T15:41:56.374Z,2148
2023-03-08T15:43:12.568Z,1812
2023-03-08T15:44:28.762Z,1480
2023-03-08T15:45:36.000Z,1324
2023-03-08T15:46:52.000Z,1232
2023-03-08T15:48:08.000Z,1248
2023-03-08T15:49:00.000Z,1576
2023-03-08T15:49:33.782Z,1188
2023-03-08T15:50:48.746Z,1196
2023-03-08T15:52:04.940Z,1668
2023-03-08T15:53:21.134Z,1768
2023-03-08T15:55:53.521Z,1628
2023-03-08T15:57:09.960Z,1424
2023-03-08T15:58:17.000Z,1296
2023-03-08T15:59:41.378Z,1252
2023-03-08T16:00:47.000Z,1080
2023-03-08T16:02:02.000Z,1008
2023-03-08T16:03:19.000Z,1096
2023-03-08T16:04:34.000Z,1196
2023-03-08T16:05:50.000Z,1092
2023-03-08T16:07:15.351Z,1020
2023-03-08T16:08:22.000Z,888
2023-03-08T16:09:47.738Z,1212
2023-03-08T16:10:55.000Z,1392
2023-03-08T16:12:11.000Z,1200
2023-03-08T16:13:36.319Z,748
2023-03-08T16:14:52.756Z,748
2023-03-08T16:16:00.000Z,1020
2023-03-08T16:17:25.140Z,1136
2023-03-08T16:18:41.095Z,884
2023-03-08T16:19:57.288Z,960
2023-03-08T16:21:13.482Z,876
2023-03-08T16:22:20.000Z,688
2023-03-08T16:23:36.000Z,684
2023-03-08T16:24:52.000Z,828
2023-03-08T16:26:08.000Z,856
2023-03-08T16:27:33.467Z,704
2023-03-08T16:28:49.661Z,964
2023-03-08T16:29:56.000Z,1060
2023-03-08T16:31:11.000Z,1148
2023-03-08T16:32:27.000Z,1176
2023-03-08T16:33:52.479Z,1136
2023-03-08T16:35:08.672Z,1220
2023-03-08T16:36:16.000Z,1256
2023-03-08T16:37:41.060Z,1376
2023-03-08T16:38:48.000Z,1456
2023-03-08T16:40:13.447Z,1468
2023-03-08T16:41:29.891Z,1488
2023-03-08T16:42:46.079Z,1532
2023-03-08T16:44:02.279Z,1496
2023-03-08T16:45:09.000Z,1416
2023-03-08T16:46:34.416Z,1344
2023-03-08T16:47:49.874Z,1288
2023-03-08T16:49:05.819Z,1208
2023-03-08T16:50:13.000Z,1080
2023-03-08T16:51:29.000Z,984
2023-03-08T16:52:54.644Z,920
2023-03-08T16:54:01.000Z,848
2023-03-08T16:55:27.036Z,808
2023-03-08T16:56:42.008Z,760
2023-03-08T16:57:48.000Z,664
2023-03-08T16:59:04.000Z,584
2023-03-08T17:00:19.000Z,496
2023-03-08T17:01:43.843Z,448
2023-03-08T17:03:00.036Z,436
2023-03-08T17:04:16.230Z,412
2023-03-08T17:05:32.424Z,392
2023-03-08T17:06:39.000Z,388
2023-03-08T17:08:05.055Z,356
2023-03-08T17:09:12.000Z,336
2023-03-08T17:10:37.446Z,296
2023-03-08T17:11:53.393Z,268
2023-03-08T17:13:09.587Z,256
2023-03-08T17:14:25.781Z,220
2023-03-08T17:15:33.000Z,192
2023-03-08T17:16:49.000Z,160
2023-03-08T17:18:13.378Z,136
2023-03-08T17:19:29.821Z,120
2023-03-08T17:20:37.000Z,104
2023-03-08T17:22:02.211Z,88
2023-03-08T17:23:18.403Z,76
2023-03-08T17:24:34.348Z,64
2023-03-08T17:25:50.541Z,64
2023-03-08T17:26:57.000Z,64
2023-03-08T17:28:20.972Z,56
2023-03-08T17:29:37.413Z,52
2023-03-08T17:30:53.606Z,48
2023-03-08T17:31:59.000Z,40
2023-03-08T17:33:15.000Z,32
2023-03-08T17:34:31.000Z,28
2023-03-08T17:35:56.425Z,24